Time;durP1;ratioP1;P1;durP2;ratioP2;P2;SDS_P1;SDS_P2;PMS_P1;PMS_P2;Temp;Humidity;BMP_temperature;BMP_pressure;BME280_temperature;BME280_humidity;BME280_pressure;Samples;Min_cycle;Max_cycle;Signal;HPM_P1;HPM_P2
2023/03/02 00:01:47;;;;;;;24.45;10.57;;;3.20;99.90;;;;;;4973100;28;20026;-70
2023/03/02 00:04:21;;;;;;;25.57;12.00;;;3.20;99.90;;;;;;4955492;28;20120;-69
2023/03/02 00:06:49;;;;;;;23.57;11.37;;;3.10;99.90;;;;;;4973242;28;20090;-69
2023/03/02 00:09:15;;;;;;;24.37;11.23;;;3.10;99.90;;;;;;4972898;28;20070;-69
2023/03/02 00:11:41;;;;;;;24.87;11.97;;;3.10;99.90;;;;;;4973365;28;20066;-69
2023/03/02 00:14:06;;;;;;;22.93;11.07;;;3.10;99.90;;;;;;4960442;28;20037;-69
2023/03/02 00:16:32;;;;;;;25.20;10.97;;;3.10;99.90;;;;;;4963938;28;20026;-69
2023/03/02 00:18:58;;;;;;;21.93;11.03;;;3.10;99.90;;;;;;4965301;28;20026;-70
2023/03/02 00:21:24;;;;;;;25.60;11.50;;;3.00;99.90;;;;;;4979786;28;20039;-69
2023/03/02 00:23:51;;;;;;;25.30;11.70;;;3.00;99.90;;;;;;4966393;28;20492;-70
2023/03/02 00:26:17;;;;;;;23.03;11.07;;;3.00;99.90;;;;;;4980173;28;20057;-69
2023/03/02 00:28:42;;;;;;;24.30;11.57;;;2.90;99.90;;;;;;4982668;28;20035;-69
2023/03/02 00:31:08;;;;;;;22.83;11.03;;;2.90;99.90;;;;;;4963231;28;20046;-70
2023/03/02 00:33:34;;;;;;;22.30;11.07;;;2.80;99.90;;;;;;4984262;28;20485;-69
2023/03/02 00:36:00;;;;;;;25.30;11.10;;;2.70;99.90;;;;;;4986693;28;20023;-69
2023/03/02 00:38:26;;;;;;;24.13;11.90;;;2.80;99.90;;;;;;4963053;28;20026;-69
2023/03/02 00:40:54;;;;;;;24.50;11.00;;;2.70;99.90;;;;;;4966613;28;20049;-69
2023/03/02 00:43:21;;;;;;;25.77;10.77;;;2.70;99.90;;;;;;4961119;28;20038;-69
2023/03/02 00:45:47;;;;;;;25.33;11.57;;;2.70;99.90;;;;;;4978628;28;20030;-70
2023/03/02 00:48:13;;;;;;;23.67;10.90;;;2.60;99.90;;;;;;4977862;28;20037;-71
2023/03/02 00:50:39;;;;;;;26.20;11.70;;;2.60;99.90;;;;;;4996133;28;20037;-71
2023/03/02 00:53:09;;;;;;;23.70;10.67;;;2.60;99.90;;;;;;4967053;28;20023;-71
2023/03/02 00:55:36;;;;;;;27.17;12.33;;;2.60;99.90;;;;;;4958751;28;20078;-70
2023/03/02 00:58:03;;;;;;;23.07;11.13;;;2.50;99.90;;;;;;4959064;28;20023;-71
2023/03/02 01:00:29;;;;;;;24.33;11.13;;;2.60;99.90;;;;;;4958565;28;20428;-71
2023/03/02 01:02:55;;;;;;;23.23;10.90;;;2.60;99.90;;;;;;4993766;28;20018;-70
2023/03/02 01:05:21;;;;;;;24.80;11.43;;;2.60;99.90;;;;;;4977287;28;20040;-70
2023/03/02 01:07:46;;;;;;;21.23;10.60;;;2.50;99.90;;;;;;4995658;28;20035;-70
2023/03/02 01:10:13;;;;;;;22.13;11.27;;;2.60;99.90;;;;;;4966587;28;20460;-70
2023/03/02 01:12:39;;;;;;;23.97;9.90;;;2.50;99.90;;;;;;4958684;28;20134;-70
2023/03/02 01:15:06;;;;;;;23.07;11.33;;;2.50;99.90;;;;;;4975813;28;20073;-70
2023/03/02 01:17:32;;;;;;;22.43;10.73;;;2.50;99.90;;;;;;4976316;28;20026;-70
2023/03/02 01:19:57;;;;;;;25.33;11.37;;;2.50;99.90;;;;;;4987568;28;20029;-70
2023/03/02 01:22:23;;;;;;;25.53;10.73;;;2.50;99.90;;;;;;4977137;28;20038;-70
2023/03/02 01:24:49;;;;;;;21.67;10.93;;;2.50;99.90;;;;;;4977955;28;20030;-70
2023/03/02 01:27:14;;;;;;;24.23;11.07;;;2.40;99.90;;;;;;4969249;28;20031;-70
2023/03/02 01:29:40;;;;;;;21.73;10.50;;;2.40;99.90;;;;;;4958705;28;20544;-70
2023/03/02 01:32:07;;;;;;;22.37;10.27;;;2.40;99.90;;;;;;4958266;28;20042;-76
2023/03/02 01:34:33;;;;;;;23.63;10.73;;;2.40;99.90;;;;;;4991259;28;20061;-70
2023/03/02 01:36:58;;;;;;;24.10;10.97;;;2.40;99.90;;;;;;4977412;28;20476;-70
2023/03/02 01:39:24;;;;;;;22.60;10.20;;;2.30;99.90;;;;;;4986906;28;20041;-70
2023/03/02 01:41:51;;;;;;;25.53;11.13;;;2.30;99.90;;;;;;4958198;28;20468;-68
2023/03/02 01:44:48;;;;;;;22.73;11.03;;;2.30;99.90;;;;;;4964287;28;20026;-68
2023/03/02 01:47:20;;;;;;;22.77;10.63;;;2.30;99.90;;;;;;4994524;28;20049;-70
2023/03/02 01:50:11;;;;;;;23.00;10.73;;;2.30;99.90;;;;;;4990798;28;20094;-70
2023/03/02 01:52:37;;;;;;;20.93;9.87;;;2.20;99.90;;;;;;4944387;28;20046;-70
2023/03/02 01:55:07;;;;;;;24.67;10.90;;;2.20;99.90;;;;;;4957741;28;20050;-70
2023/03/02 01:57:42;;;;;;;25.50;11.60;;;2.20;99.90;;;;;;4973605;28;20121;-70
2023/03/02 02:00:11;;;;;;;23.60;11.13;;;2.20;99.90;;;;;;4963208;28;20027;-77
2023/03/02 02:02:40;;;;;;;20.37;10.37;;;2.10;99.90;;;;;;4967782;28;20031;-71
2023/03/02 02:05:08;;;;;;;22.90;10.67;;;2.10;99.90;;;;;;4957878;28;20035;-70
2023/03/02 02:07:34;;;;;;;22.83;10.90;;;2.10;99.90;;;;;;4984003;28;20062;-70
2023/03/02 02:10:01;;;;;;;24.10;10.90;;;2.00;99.90;;;;;;4977080;28;20033;-70
2023/03/02 02:12:26;;;;;;;26.33;11.50;;;2.00;99.90;;;;;;4993913;28;20034;-72
2023/03/02 02:14:53;;;;;;;22.03;10.80;;;2.00;99.90;;;;;;4987051;28;20101;-70
2023/03/02 02:17:19;;;;;;;22.30;11.10;;;2.00;99.90;;;;;;4956966;28;20023;-70
2023/03/02 02:20:25;;;;;;;24.60;10.93;;;1.90;99.90;;;;;;4974841;28;20030;-70
2023/03/02 02:23:00;;;;;;;21.60;11.13;;;1.80;99.90;;;;;;4970591;28;20070;-70
2023/03/02 02:26:00;;;;;;;22.93;10.73;;;1.80;99.90;;;;;;4993726;28;20022;-70
2023/03/02 02:28:43;;;;;;;23.17;10.97;;;1.80;99.90;;;;;;4976181;28;20022;-70
2023/03/02 02:31:14;;;;;;;26.30;10.37;;;1.70;99.90;;;;;;4976775;28;20035;-70
2023/03/02 02:33:43;;;;;;;23.33;11.13;;;1.70;99.90;;;;;;4976500;28;20380;-70
2023/03/02 02:36:21;;;;;;;23.53;11.77;;;1.70;99.90;;;;;;4963863;28;20031;-70
2023/03/02 02:38:51;;;;;;;24.77;11.30;;;1.70;99.90;;;;;;4974892;28;20031;-70
2023/03/02 02:41:21;;;;;;;26.70;11.43;;;1.60;99.90;;;;;;4973982;28;20027;-70
2023/03/02 02:43:47;;;;;;;21.60;10.40;;;1.70;99.90;;;;;;4962484;28;20022;-70
2023/03/02 02:46:13;;;;;;;25.10;11.30;;;1.70;99.90;;;;;;4993247;28;20032;-70
2023/03/02 02:48:38;;;;;;;21.37;10.50;;;1.70;99.90;;;;;;4991860;28;20113;-70
2023/03/02 02:51:07;;;;;;;23.10;10.23;;;1.70;99.90;;;;;;4957062;28;20038;-70
2023/03/02 02:54:03;;;;;;;23.90;10.53;;;1.70;99.90;;;;;;4956431;28;20542;-70
2023/03/02 02:56:33;;;;;;;24.77;11.60;;;1.70;99.90;;;;;;4956193;28;20055;-70
2023/03/02 02:59:11;;;;;;;22.90;10.90;;;1.70;99.90;;;;;;4956869;28;20034;-70
2023/03/02 03:01:37;;;;;;;25.60;10.90;;;1.70;99.90;;;;;;4957214;28;20069;-68
2023/03/02 03:04:05;;;;;;;23.70;9.83;;;1.60;99.90;;;;;;4956613;28;20130;-70
2023/03/02 03:06:41;;;;;;;21.20;10.80;;;1.60;99.90;;;;;;4973156;28;20089;-70
2023/03/02 03:09:08;;;;;;;21.67;10.33;;;1.60;99.90;;;;;;4956994;28;20026;-70
2023/03/02 03:11:38;;;;;;;23.53;10.70;;;1.70;99.90;;;;;;4956145;28;20033;-70
2023/03/02 03:14:14;;;;;;;24.20;11.00;;;1.70;99.90;;;;;;4974321;28;20101;-70
2023/03/02 03:16:42;;;;;;;22.87;10.50;;;1.60;99.90;;;;;;4956685;28;20031;-70
2023/03/02 03:19:19;;;;;;;21.73;10.43;;;1.60;99.90;;;;;;4973912;28;20035;-70
2023/03/02 03:21:48;;;;;;;27.83;12.07;;;1.60;99.90;;;;;;4985879;28;20101;-70
2023/03/02 03:24:13;;;;;;;22.80;10.67;;;1.50;99.90;;;;;;4975409;28;20031;-71
2023/03/02 03:26:39;;;;;;;25.73;10.90;;;1.50;99.90;;;;;;4993253;28;20158;-70
2023/03/02 03:29:04;;;;;;;25.00;10.97;;;1.50;99.90;;;;;;4992807;28;20534;-71
2023/03/02 03:31:30;;;;;;;26.67;11.87;;;1.50;99.90;;;;;;4992540;28;20026;-70
2023/03/02 03:33:59;;;;;;;22.93;10.83;;;1.50;99.90;;;;;;4969927;28;20027;-70
2023/03/02 03:36:27;;;;;;;24.37;11.60;;;1.50;99.90;;;;;;4973174;28;20034;-70
2023/03/02 03:38:52;;;;;;;24.90;11.23;;;1.50;99.90;;;;;;4956659;28;20030;-70
2023/03/02 03:41:18;;;;;;;25.37;11.97;;;1.40;99.90;;;;;;4969253;28;20030;-70
2023/03/02 03:43:44;;;;;;;27.03;10.60;;;1.40;99.90;;;;;;4975894;28;20031;-70
2023/03/02 03:46:09;;;;;;;23.93;11.60;;;1.40;99.90;;;;;;4993198;28;20031;-70
2023/03/02 03:48:35;;;;;;;30.20;12.17;;;1.30;99.90;;;;;;4975135;28;20492;-70
2023/03/02 03:51:01;;;;;;;26.50;11.73;;;1.30;99.90;;;;;;4986844;28;20038;-70
2023/03/02 03:53:27;;;;;;;24.40;12.20;;;1.30;99.90;;;;;;4955664;28;20035;-70
2023/03/02 03:55:53;;;;;;;26.97;11.47;;;1.30;99.90;;;;;;4956218;28;20050;-70
2023/03/02 03:58:19;;;;;;;26.93;12.43;;;1.40;99.90;;;;;;4955863;28;20034;-70
2023/03/02 04:00:46;;;;;;;30.47;12.27;;;1.40;99.90;;;;;;4974192;28;20420;-70
2023/03/02 04:03:13;;;;;;;23.67;11.23;;;1.40;99.90;;;;;;4992943;28;20027;-70
2023/03/02 04:05:39;;;;;;;23.33;12.00;;;1.40;99.90;;;;;;4992607;28;20113;-70
2023/03/02 04:08:06;;;;;;;25.77;12.20;;;1.30;99.90;;;;;;4993164;28;20073;-70
2023/03/02 04:10:31;;;;;;;27.67;11.27;;;1.30;99.90;;;;;;4992223;28;20054;-70
2023/03/02 04:12:57;;;;;;;26.33;11.70;;;1.30;99.90;;;;;;4975396;28;20042;-70
2023/03/02 04:15:23;;;;;;;24.27;11.27;;;1.30;99.90;;;;;;4992334;28;20081;-70
2023/03/02 04:17:48;;;;;;;21.90;10.40;;;1.30;99.90;;;;;;4996221;28;20472;-70
2023/03/02 04:20:16;;;;;;;26.57;12.03;;;1.20;99.90;;;;;;4979132;28;20034;-70
2023/03/02 04:22:46;;;;;;;27.13;10.77;;;1.30;99.90;;;;;;4979081;28;20037;-70
2023/03/02 04:25:13;;;;;;;22.40;10.97;;;1.20;99.90;;;;;;4979117;28;20026;-69
2023/03/02 04:27:39;;;;;;;24.43;11.43;;;1.20;99.90;;;;;;4995549;28;20471;-70
2023/03/02 04:30:06;;;;;;;26.50;10.70;;;1.20;99.90;;;;;;4978900;28;20472;-70
2023/03/02 04:32:31;;;;;;;23.90;11.07;;;1.20;99.90;;;;;;4981576;28;20027;-71
2023/03/02 04:34:57;;;;;;;20.80;9.93;;;1.20;99.90;;;;;;4976712;28;20035;-70
2023/03/02 04:37:23;;;;;;;25.67;11.87;;;1.20;99.90;;;;;;4963410;28;20026;-68
2023/03/02 04:39:50;;;;;;;23.57;11.37;;;1.20;99.90;;;;;;4987773;28;20027;-68
2023/03/02 04:42:19;;;;;;;23.20;10.67;;;1.10;99.90;;;;;;4976761;28;20161;-71
2023/03/02 04:44:45;;;;;;;23.77;11.23;;;1.20;99.90;;;;;;4976684;28;20031;-70
2023/03/02 04:47:11;;;;;;;24.47;10.90;;;1.20;99.90;;;;;;4959319;28;20118;-68
2023/03/02 04:49:37;;;;;;;24.03;11.30;;;1.20;99.90;;;;;;4976036;28;20272;-68
2023/03/02 04:52:03;;;;;;;25.77;10.90;;;1.20;99.90;;;;;;4967117;28;20113;-68
2023/03/02 04:54:29;;;;;;;21.97;10.07;;;1.20;99.90;;;;;;4995189;28;20065;-68
2023/03/02 04:56:55;;;;;;;22.50;10.70;;;1.20;99.90;;;;;;4995876;28;20066;-68
2023/03/02 04:59:24;;;;;;;26.23;11.63;;;1.20;99.90;;;;;;4975906;28;20026;-68
2023/03/02 05:01:51;;;;;;;21.63;10.53;;;1.20;99.90;;;;;;4976338;28;20464;-68
2023/03/02 05:04:18;;;;;;;21.63;10.03;;;1.20;99.90;;;;;;4958777;28;20126;-68
2023/03/02 05:06:44;;;;;;;20.70;10.57;;;1.20;99.90;;;;;;4959045;28;20078;-68
2023/03/02 05:09:10;;;;;;;26.00;10.90;;;1.10;99.90;;;;;;4958898;28;20035;-68
2023/03/02 05:11:35;;;;;;;27.93;11.67;;;1.10;99.90;;;;;;4975768;28;20384;-68
2023/03/02 05:14:03;;;;;;;27.87;11.57;;;1.10;99.90;;;;;;4975818;28;20114;-68
2023/03/02 05:16:31;;;;;;;24.53;10.70;;;1.10;99.90;;;;;;4969595;28;20026;-68
2023/03/02 05:18:57;;;;;;;21.87;11.37;;;1.10;99.90;;;;;;4978056;28;20037;-68
2023/03/02 05:21:23;;;;;;;25.77;11.90;;;1.10;99.90;;;;;;4977491;28;20035;-68
2023/03/02 05:23:49;;;;;;;23.27;10.97;;;1.10;99.90;;;;;;4995399;28;20415;-68
2023/03/02 05:26:15;;;;;;;26.10;11.50;;;1.10;99.90;;;;;;4977963;28;20084;-69
2023/03/02 05:28:41;;;;;;;24.40;11.00;;;1.10;99.90;;;;;;4977138;28;20069;-68
2023/03/02 05:31:08;;;;;;;24.03;11.00;;;1.00;99.90;;;;;;4977423;28;20026;-68
2023/03/02 05:33:33;;;;;;;26.83;11.33;;;1.00;99.90;;;;;;4974986;28;20030;-67
2023/03/02 05:36:00;;;;;;;24.57;11.63;;;1.00;99.90;;;;;;4957939;28;20031;-68
2023/03/02 05:38:26;;;;;;;25.50;11.43;;;0.90;99.90;;;;;;4957459;28;20030;-68
2023/03/02 05:40:52;;;;;;;28.03;11.47;;;0.90;99.90;;;;;;4958199;28;20106;-68
2023/03/02 05:43:20;;;;;;;26.90;11.03;;;0.90;99.90;;;;;;4958340;28;20030;-68
2023/03/02 05:45:46;;;;;;;23.77;10.87;;;0.90;99.90;;;;;;4975315;28;20057;-68
2023/03/02 05:48:12;;;;;;;24.40;10.50;;;0.90;99.90;;;;;;4958365;28;20520;-68
2023/03/02 05:50:38;;;;;;;27.50;11.37;;;0.80;99.90;;;;;;4974924;28;20030;-68
2023/03/02 05:53:04;;;;;;;26.23;12.53;;;0.80;99.90;;;;;;4958340;28;20053;-68
2023/03/02 05:55:30;;;;;;;23.33;10.53;;;0.80;99.90;;;;;;4957205;28;20415;-68
2023/03/02 05:57:55;;;;;;;26.63;11.00;;;0.80;99.90;;;;;;4957975;28;20551;-68
2023/03/02 06:00:22;;;;;;;23.60;10.70;;;0.70;99.90;;;;;;4975336;28;20037;-71
2023/03/02 06:02:47;;;;;;;25.13;10.27;;;0.70;99.90;;;;;;4975306;28;20027;-68
2023/03/02 06:05:18;;;;;;;23.53;11.30;;;0.70;99.90;;;;;;4984449;28;20038;-68
2023/03/02 06:07:44;;;;;;;24.80;11.23;;;0.60;99.90;;;;;;4986773;28;20027;-68
2023/03/02 06:10:11;;;;;;;23.90;10.17;;;0.60;99.90;;;;;;4959710;28;20054;-68
2023/03/02 06:12:37;;;;;;;23.43;11.17;;;0.70;99.90;;;;;;4976457;28;20471;-71
2023/03/02 06:15:05;;;;;;;25.67;11.20;;;0.70;99.90;;;;;;4977113;28;20117;-70
2023/03/02 06:17:31;;;;;;;26.53;11.70;;;0.70;99.90;;;;;;4993928;28;20113;-70
2023/03/02 06:19:56;;;;;;;24.33;11.70;;;0.70;99.90;;;;;;4994278;28;20563;-68
2023/03/02 06:22:22;;;;;;;26.27;11.33;;;0.70;99.90;;;;;;4976776;28;20169;-68
2023/03/02 06:24:48;;;;;;;27.27;11.50;;;0.70;99.90;;;;;;4976791;28;20026;-68
2023/03/02 06:27:14;;;;;;;24.33;10.47;;;0.70;99.90;;;;;;4963567;28;20181;-70
2023/03/02 06:29:40;;;;;;;25.47;11.70;;;0.70;99.90;;;;;;4973977;28;20031;-70
2023/03/02 06:32:06;;;;;;;23.17;11.40;;;0.70;99.90;;;;;;4957382;28;20041;-70
2023/03/02 06:34:31;;;;;;;24.30;11.43;;;0.70;99.90;;;;;;4973846;28;20049;-70
2023/03/02 06:36:57;;;;;;;23.13;10.73;;;0.70;99.90;;;;;;4957202;28;20035;-70
2023/03/02 06:39:23;;;;;;;30.87;12.20;;;0.70;99.90;;;;;;4956697;28;20030;-69
2023/03/02 06:41:49;;;;;;;23.60;10.37;;;0.70;99.90;;;;;;4982476;28;20026;-70
2023/03/02 06:44:16;;;;;;;27.53;11.67;;;0.70;99.90;;;;;;4976307;28;20034;-70
2023/03/02 06:46:43;;;;;;;27.97;10.80;;;0.80;99.90;;;;;;4992803;28;20443;-70
2023/03/02 06:49:10;;;;;;;28.47;11.30;;;0.70;99.90;;;;;;4967835;28;20035;-70
2023/03/02 06:51:36;;;;;;;26.57;11.30;;;0.80;99.90;;;;;;4956175;28;20045;-70
2023/03/02 06:54:02;;;;;;;26.60;11.13;;;0.80;99.90;;;;;;4956718;28;20035;-70
2023/03/02 06:56:28;;;;;;;19.57;10.37;;;0.80;99.90;;;;;;4956042;28;20050;-70
2023/03/02 06:58:53;;;;;;;25.13;11.63;;;0.80;99.90;;;;;;4974077;28;20464;-70
2023/03/02 07:01:19;;;;;;;28.37;12.13;;;0.90;99.90;;;;;;4974467;28;20392;-70
2023/03/02 07:03:45;;;;;;;27.67;11.50;;;0.90;99.90;;;;;;4955958;28;20264;-70
2023/03/02 07:06:12;;;;;;;23.33;10.80;;;0.90;99.90;;;;;;4991367;28;20030;-70
2023/03/02 07:08:38;;;;;;;22.03;10.67;;;0.90;99.90;;;;;;4975339;28;20034;-70
2023/03/02 07:11:05;;;;;;;25.97;10.73;;;1.00;99.90;;;;;;4993242;28;20120;-70
2023/03/02 07:13:31;;;;;;;25.87;10.80;;;1.00;99.90;;;;;;4993008;28;20059;-69
2023/03/02 07:15:56;;;;;;;24.83;11.10;;;1.00;99.90;;;;;;4993252;28;20034;-69
2023/03/02 07:18:22;;;;;;;22.53;10.47;;;1.00;99.90;;;;;;4975532;28;20387;-69
2023/03/02 07:20:47;;;;;;;27.10;11.43;;;1.10;99.90;;;;;;4992652;28;20026;-69
2023/03/02 07:23:13;;;;;;;24.60;11.10;;;1.10;99.90;;;;;;4987902;28;20027;-68
2023/03/02 07:25:38;;;;;;;27.20;11.60;;;1.10;99.90;;;;;;4972886;28;20479;-69
2023/03/02 07:28:04;;;;;;;24.97;11.43;;;1.10;99.90;;;;;;4973739;28;20035;-69
2023/03/02 07:30:30;;;;;;;27.07;11.67;;;1.10;99.90;;;;;;4955870;28;20054;-70
2023/03/02 07:32:56;;;;;;;24.17;10.53;;;1.10;99.90;;;;;;4973629;28;20069;-69
2023/03/02 07:35:22;;;;;;;25.43;11.47;;;1.10;99.90;;;;;;4955973;28;20042;-69
2023/03/02 07:37:47;;;;;;;29.20;11.70;;;1.20;99.90;;;;;;4955684;28;20491;-69
2023/03/02 07:40:13;;;;;;;27.10;12.00;;;1.20;99.90;;;;;;4973542;28;20039;-69
2023/03/02 07:42:39;;;;;;;25.73;11.20;;;1.30;99.90;;;;;;4955701;28;20039;-69
2023/03/02 07:45:06;;;;;;;30.63;12.13;;;1.30;99.90;;;;;;4976803;28;20510;-70
2023/03/02 07:47:32;;;;;;;29.50;12.37;;;1.40;99.90;;;;;;4992399;28;20022;-70
2023/03/02 07:49:57;;;;;;;26.50;13.30;;;1.40;99.90;;;;;;4976107;28;20030;-70
2023/03/02 07:52:23;;;;;;;24.90;12.00;;;1.50;99.90;;;;;;4978712;28;20491;-70
2023/03/02 07:54:49;;;;;;;28.93;12.67;;;1.50;99.90;;;;;;4954521;29;20055;-69
2023/03/02 07:57:15;;;;;;;27.80;12.63;;;1.60;99.90;;;;;;4958313;29;20038;-70
2023/03/02 07:59:41;;;;;;;27.47;12.70;;;1.60;99.90;;;;;;4957478;29;20027;-69
2023/03/02 08:02:13;;;;;;;31.30;12.13;;;1.70;99.90;;;;;;4957955;29;20035;-68
2023/03/02 08:04:39;;;;;;;28.10;12.73;;;1.70;99.90;;;;;;4961659;28;20031;-69
2023/03/02 08:07:04;;;;;;;26.47;12.80;;;1.70;99.90;;;;;;4959463;28;20507;-68
2023/03/02 08:09:30;;;;;;;28.27;12.07;;;1.70;99.90;;;;;;4976610;28;20039;-70
2023/03/02 08:11:55;;;;;;;25.47;12.47;;;1.80;99.90;;;;;;4959859;28;20039;-69
2023/03/02 08:14:21;;;;;;;32.63;13.57;;;1.80;99.90;;;;;;4977061;28;20035;-69
2023/03/02 08:16:47;;;;;;;28.53;12.53;;;1.80;99.90;;;;;;4959112;28;20037;-69
2023/03/02 08:19:12;;;;;;;30.63;12.57;;;1.90;99.90;;;;;;4976725;28;20023;-69
2023/03/02 08:21:38;;;;;;;25.33;12.00;;;1.90;99.90;;;;;;4959021;28;20113;-69
2023/03/02 08:24:04;;;;;;;26.33;12.07;;;2.00;99.90;;;;;;4976982;28;20027;-69
2023/03/02 08:26:30;;;;;;;26.97;12.03;;;2.00;99.90;;;;;;4959109;28;20030;-73
2023/03/02 08:28:57;;;;;;;30.57;13.43;;;2.10;99.90;;;;;;4958540;28;20109;-69
2023/03/02 08:31:22;;;;;;;26.77;12.90;;;2.10;99.90;;;;;;4939720;29;20035;-69
2023/03/02 08:33:48;;;;;;;29.87;13.27;;;2.20;99.90;;;;;;4957108;29;20043;-70
2023/03/02 08:36:16;;;;;;;31.17;12.50;;;2.20;99.90;;;;;;4957506;29;20050;-69
2023/03/02 08:38:43;;;;;;;30.17;12.17;;;2.30;99.90;;;;;;4939536;29;20023;-69
2023/03/02 08:41:12;;;;;;;28.00;12.03;;;2.30;99.90;;;;;;4945428;28;20030;-70
2023/03/02 08:43:38;;;;;;;29.20;12.70;;;2.40;99.90;;;;;;4970116;28;20480;-69
2023/03/02 08:46:04;;;;;;;27.13;11.67;;;2.40;99.90;;;;;;4967881;28;20030;-69
2023/03/02 08:48:29;;;;;;;27.77;11.80;;;2.50;99.90;;;;;;4952356;28;20073;-69
2023/03/02 08:51:07;;;;;;;30.07;12.60;;;2.50;99.90;;;;;;4967938;28;20418;-69
2023/03/02 08:53:36;;;;;;;27.43;11.77;;;2.50;99.90;;;;;;4966223;28;20509;-70
2023/03/02 08:56:02;;;;;;;29.60;12.50;;;2.60;99.90;;;;;;4944997;28;20086;-69
2023/03/02 08:58:27;;;;;;;26.43;11.87;;;2.70;99.90;;;;;;4939666;29;20027;-69
2023/03/02 09:00:53;;;;;;;32.33;13.13;;;2.70;99.90;;;;;;4943029;28;20031;-70
2023/03/02 09:03:19;;;;;;;31.13;13.43;;;2.80;99.90;;;;;;4939162;29;20031;-70
2023/03/02 09:05:45;;;;;;;28.30;12.67;;;2.80;99.90;;;;;;4951850;28;20077;-69
2023/03/02 09:08:11;;;;;;;33.47;14.03;;;3.00;99.90;;;;;;4960049;28;20039;-70
2023/03/02 09:10:37;;;;;;;28.77;12.47;;;3.10;99.90;;;;;;4959200;28;20082;-70
2023/03/02 09:13:03;;;;;;;29.87;12.20;;;3.20;99.90;;;;;;4950972;29;20043;-70
2023/03/02 09:15:29;;;;;;;28.27;13.30;;;3.20;99.90;;;;;;4966822;28;20419;-69
2023/03/02 09:17:55;;;;;;;30.53;12.33;;;3.30;99.90;;;;;;4943804;29;20040;-69
2023/03/02 09:20:20;;;;;;;31.10;14.33;;;3.30;99.90;;;;;;4954393;28;20473;-70
2023/03/02 09:22:49;;;;;;;29.73;13.17;;;3.40;99.90;;;;;;4948138;28;20049;-74
2023/03/02 09:25:18;;;;;;;29.90;12.37;;;3.50;99.90;;;;;;4964921;28;20031;-71
2023/03/02 09:27:45;;;;;;;27.50;12.57;;;3.60;99.90;;;;;;4956535;28;20481;-70
2023/03/02 09:30:13;;;;;;;26.97;12.53;;;3.60;99.90;;;;;;4954969;28;20030;-70
2023/03/02 09:32:38;;;;;;;29.50;13.57;;;3.70;99.90;;;;;;4964990;28;20502;-70
2023/03/02 09:35:04;;;;;;;28.60;12.93;;;3.80;99.90;;;;;;4973998;28;20208;-69
2023/03/02 09:37:30;;;;;;;28.57;12.57;;;3.80;99.90;;;;;;4946552;28;20412;-70
2023/03/02 09:39:55;;;;;;;28.03;12.83;;;3.90;99.90;;;;;;4957407;28;20476;-70
2023/03/02 09:42:40;;;;;;;24.83;12.80;;;4.00;99.90;;;;;;4942062;28;20039;-70
2023/03/02 09:46:00;;;;;;;31.33;13.10;;;4.10;99.90;;;;;;4967757;28;20031;-70
2023/03/02 09:48:41;;;;;;;24.10;11.23;;;4.20;99.90;;;;;;4876607;29;20029;-70
2023/03/02 09:51:22;;;;;;;28.73;11.73;;;4.30;99.90;;;;;;4974770;28;20039;-70
2023/03/02 09:54:06;;;;;;;27.97;12.53;;;4.30;99.90;;;;;;4960240;28;20027;-70
2023/03/02 09:56:36;;;;;;;27.77;12.43;;;4.40;99.90;;;;;;4941043;28;20051;-70
2023/03/02 09:59:27;;;;;;;26.97;11.70;;;4.40;99.90;;;;;;4955740;28;20081;-70
2023/03/02 10:02:17;;;;;;;27.47;11.73;;;4.50;99.90;;;;;;4943464;29;20038;-69
2023/03/02 10:04:49;;;;;;;29.73;12.70;;;4.50;99.90;;;;;;4959039;28;20068;-69
2023/03/02 10:07:18;;;;;;;24.75;11.20;;;4.60;99.90;;;;;;4948656;29;20035;-71
2023/03/02 10:09:44;;;;;;;25.97;12.70;;;4.70;99.90;;;;;;4967153;28;20027;-70
2023/03/02 10:12:35;;;;;;;27.07;12.07;;;4.80;99.90;;;;;;4963677;28;20464;-70
2023/03/02 10:15:30;;;;;;;28.60;13.07;;;4.90;99.90;;;;;;4956248;28;20460;-70
2023/03/02 10:18:16;;;;;;;25.83;12.13;;;5.00;99.90;;;;;;4972125;28;20039;-70
2023/03/02 10:20:50;;;;;;;27.87;12.13;;;5.00;99.90;;;;;;4952814;28;20114;-71
2023/03/02 10:23:24;;;;;;;27.30;12.03;;;5.10;99.90;;;;;;4947263;28;20037;-72
2023/03/02 10:25:56;;;;;;;25.97;12.00;;;5.20;99.90;;;;;;4974120;28;20034;-70
2023/03/02 10:28:26;;;;;;;24.80;11.48;;;5.20;99.90;;;;;;4941015;28;20115;-70
2023/03/02 10:31:06;;;;;;;23.43;11.70;;;5.30;99.90;;;;;;4973132;28;20038;-70
2023/03/02 10:33:35;;;;;;;31.00;12.03;;;5.40;99.90;;;;;;4972660;28;20023;-70
2023/03/02 10:36:02;;;;;;;25.10;11.93;;;5.50;99.90;;;;;;4968007;28;20415;-71
2023/03/02 10:38:28;;;;;;;22.67;11.27;;;5.50;99.90;;;;;;4950493;28;20134;-71
2023/03/02 10:41:05;;;;;;;22.80;11.20;;;5.40;99.90;;;;;;4960223;28;20457;-70
2023/03/02 10:43:39;;;;;;;25.83;12.23;;;5.50;99.90;;;;;;4946093;29;20031;-70
2023/03/02 10:46:08;;;;;;;25.50;12.20;;;5.60;99.90;;;;;;4960309;28;20379;-70
2023/03/02 10:49:21;;;;;;;22.27;10.97;;;5.60;99.90;;;;;;4970432;28;20495;-76
2023/03/02 10:51:58;;;;;;;24.73;10.77;;;5.70;99.90;;;;;;4924680;28;20043;-70
2023/03/02 10:54:27;;;;;;;25.60;11.43;;;5.80;99.90;;;;;;4941838;28;20027;-71
2023/03/02 10:56:57;;;;;;;23.70;11.80;;;5.90;99.90;;;;;;4968723;28;20113;-71
2023/03/02 10:59:28;;;;;;;26.03;11.53;;;6.00;99.90;;;;;;4982291;28;20483;-72
2023/03/02 11:02:01;;;;;;;27.50;12.00;;;6.00;99.90;;;;;;4970756;28;20280;-71
2023/03/02 11:04:28;;;;;;;26.23;11.17;;;6.00;99.90;;;;;;4990879;28;20452;-72
2023/03/02 11:06:54;;;;;;;29.17;12.23;;;6.00;99.90;;;;;;4964545;28;20162;-71
2023/03/02 11:09:19;;;;;;;27.87;12.20;;;6.10;99.90;;;;;;4960091;28;20101;-71
2023/03/02 11:11:54;;;;;;;25.30;11.77;;;6.10;99.90;;;;;;4968120;28;20503;-72
2023/03/02 11:14:21;;;;;;;23.30;11.23;;;6.20;99.90;;;;;;4957996;28;20372;-73
2023/03/02 11:16:47;;;;;;;26.00;10.90;;;6.30;99.90;;;;;;4962172;28;20037;-72
2023/03/02 11:19:26;;;;;;;23.03;11.37;;;6.40;99.90;;;;;;4976363;28;20412;-72
2023/03/02 11:22:01;;;;;;;28.10;12.10;;;6.60;99.90;;;;;;4992938;28;20035;-72
2023/03/02 11:24:37;;;;;;;22.93;11.70;;;6.60;99.90;;;;;;4975947;28;20029;-72
2023/03/02 11:27:15;;;;;;;23.97;11.37;;;6.50;99.90;;;;;;4993205;28;20023;-71
2023/03/02 11:29:56;;;;;;;25.03;11.80;;;6.50;99.90;;;;;;4975329;28;20034;-72
2023/03/02 11:32:40;;;;;;;26.10;11.77;;;6.60;99.90;;;;;;4993235;28;20057;-73
2023/03/02 11:35:24;;;;;;;24.53;10.80;;;6.60;99.90;;;;;;4975435;28;20081;-72
2023/03/02 11:37:57;;;;;;;25.37;11.83;;;6.80;99.90;;;;;;4975333;28;20471;-72
2023/03/02 11:40:25;;;;;;;22.63;11.60;;;6.80;99.90;;;;;;4993240;28;20106;-72
2023/03/02 11:42:54;;;;;;;24.57;11.03;;;6.80;99.90;;;;;;4975292;28;20102;-72
2023/03/02 11:45:26;;;;;;;25.87;11.70;;;6.80;99.90;;;;;;4975712;28;20026;-72
2023/03/02 11:48:22;;;;;;;24.83;11.27;;;7.00;99.90;;;;;;4992656;28;20029;-72
2023/03/02 11:51:00;;;;;;;24.37;11.30;;;7.00;99.90;;;;;;4975042;28;20081;-72
2023/03/02 11:53:48;;;;;;;27.23;11.57;;;7.20;99.90;;;;;;4975773;28;20030;-73
2023/03/02 11:56:14;;;;;;;25.57;11.03;;;7.10;99.90;;;;;;4959441;28;20130;-72
2023/03/02 11:58:42;;;;;;;26.37;11.23;;;7.30;99.90;;;;;;4955484;28;20114;-72
2023/03/02 12:01:18;;;;;;;22.33;10.60;;;7.40;99.90;;;;;;4973719;28;20536;-72
2023/03/02 12:03:46;;;;;;;21.63;10.80;;;7.50;99.90;;;;;;4972777;28;20027;-72
2023/03/02 12:06:21;;;;;;;23.03;10.73;;;7.50;99.90;;;;;;4956250;28;20030;-72
2023/03/02 12:08:50;;;;;;;21.93;10.50;;;7.70;99.90;;;;;;4955847;28;20030;-72
2023/03/02 12:11:16;;;;;;;20.80;10.57;;;7.80;99.90;;;;;;4973489;28;20037;-72
2023/03/02 12:13:43;;;;;;;22.05;10.43;;;7.80;99.90;;;;;;4973126;28;20438;-73
2023/03/02 12:16:21;;;;;;;23.33;11.05;;;7.90;99.90;;;;;;4956277;28;20030;-73
2023/03/02 12:18:55;;;;;;;19.85;10.07;;;8.00;99.90;;;;;;4955521;28;20506;-73
2023/03/02 12:21:23;;;;;;;27.15;11.52;;;8.20;99.90;;;;;;4973429;28;20383;-73
2023/03/02 12:23:48;;;;;;;20.88;10.82;;;8.40;99.90;;;;;;4972932;28;20081;-73
2023/03/02 12:26:20;;;;;;;25.60;11.32;;;8.70;99.90;;;;;;4956393;28;20031;-71
2023/03/02 12:28:57;;;;;;;25.48;12.00;;;8.80;99.90;;;;;;4973051;28;20086;-70
2023/03/02 12:31:22;;;;;;;26.63;11.65;;;9.10;99.90;;;;;;4973341;28;20125;-72
2023/03/02 12:33:50;;;;;;;20.70;10.85;;;9.30;99.90;;;;;;4955488;28;20117;-71
2023/03/02 12:36:24;;;;;;;20.20;10.88;;;9.50;99.90;;;;;;4973743;28;20102;-72
2023/03/02 12:39:08;;;;;;;23.13;10.68;;;9.70;99.90;;;;;;4976495;28;20054;-72
2023/03/02 12:41:59;;;;;;;19.35;10.27;;;10.00;99.70;;;;;;4976942;28;20066;-72
2023/03/02 12:44:42;;;;;;;21.25;10.88;;;10.30;98.50;;;;;;4959461;28;20057;-72
2023/03/02 12:47:25;;;;;;;24.10;10.75;;;10.50;97.90;;;;;;4976841;28;20113;-72